Aviation Digital Data Service (ADDS)

Output produced by METARs form (0135 UTC 23 November 2017)
found at http://www.aviationweather.gov/adds/metars/
 
TAF DNAA 222130Z 2300/2406 04004KT CAVOK 
     TEMPO 2303/2309 5000 HZ 
     BECMG 2309/2311 11010KT 7000 NSW 
     TEMPO 2311/2317 21005KT
       
TAF DNAA 222130Z 2300/2406 04004KT CAVOK 
     TEMPO 2303/2309 5000 HZ 
     BECMG 2309/2311 11010KT 7000 NSW 
     TEMPO 2311/2317 21005KT
       
TAF DNCA 222130Z 2300/2406 00000KT 8000 BKN008 
     TEMPO 2301/2307 3000 TSRA BR BKN008 FEW019CB 
     BECMG 2308/2310 27011KT BKN012 FEW120CB
       
TAF DNEN 222130Z 2300/2406 17003KT 7000 SCT008 
     TEMPO 2302/2307 3000 BR 
     BECMG 2308/2310 BKN009
       
TAF DNGO 222140Z 2300/2406 07008KT 6000 NSW NSC 
     TEMPO 2306/2311 1500 HZ
       
TAF DNIL 222130Z 2300/2406 21005KT 9999 FEW010 
     PROB30 
     TEMPO 2303/2308 5000 BR 
     BECMG 2308/2310 24010KT BKN010
       
TAF DNIM 222130Z 2300/2406 VRB02KT 8000 BKN009 
     TEMPO 2302/2307 5000 BR SCT008 
     BECMG 2308/2310 25012KT BKN011 FEW019CB
       
TAF DNJO 222130Z 2300/2406 09006KT CAVOK 
     TEMPO 2302/2308 4000 HZ
       
TAF DNKA 222130Z 2300/2406 03003KT 4000 HZ 
     TEMPO 2303/2308 09008KT 2000 HZ
       
DNKN 230100Z 05006KT 3000 HZ NSC 19/05 Q1015 NOSIG
TAF DNKN 222140Z 2300/2406 VRB02KT 5000 HZ NSC 
     TEMPO 2306/2311 08012KT 1500 
     FM231200 06010KT 3000 HZ NSC
       
TAF DNKT 222140Z 2300/2406 VRB02KT 5000 HZ NSC 
     TEMPO 2306/2311 08012KT 1500 
     BECMG 2312/2314 08010KT
       
TAF DNMA 222140Z 2300/2406 05007KT 7000 NSW NSC 
     TEMPO 2305/2311 06013KT 1500 HZ
       
TAF DNMN 222130Z 2300/2406 29005KT CAVOK 
     TEMPO 2304/2309 06005KT 5000 HZ
       
DNPO 230000Z 00000KT 7000 SCT007 24/24 Q1010 TEMPO TS
TAF DNPO 222130Z 2300/2406 VRB02KT 7000 SCT008 
     TEMPO 2302/2307 3000 BR 
     PROB30 2304/2306 0800 FG VV003 
     BECMG 2308/2310 23010KT BKN011 FEW019CB
       
TAF DNSO 222140Z 2300/2406 09010KT 6000 NSW NSC 
     TEMPO 2307/2313 3000 HZ
       
TAF DNYO 222140Z 2300/2406 05008KT 5000 HZ NSC 
     TEMPO 2305/2310 3000
       
TAF DNAA 222130Z 2300/2406 04004KT CAVOK 
     TEMPO 2303/2309 5000 HZ 
     BECMG 2309/2311 11010KT 7000 NSW 
     TEMPO 2311/2317 21005KT
       
TAF DNCA 222130Z 2300/2406 00000KT 8000 BKN008 
     TEMPO 2301/2307 3000 TSRA BR BKN008 FEW019CB 
     BECMG 2308/2310 27011KT BKN012 FEW120CB
       
TAF DNEN 222130Z 2300/2406 17003KT 7000 SCT008 
     TEMPO 2302/2307 3000 BR 
     BECMG 2308/2310 BKN009
       
TAF DNGO 222140Z 2300/2406 07008KT 6000 NSW NSC 
     TEMPO 2306/2311 1500 HZ
       
TAF DNIL 222130Z 2300/2406 21005KT 9999 FEW010 
     PROB30 
     TEMPO 2303/2308 5000 BR 
     BECMG 2308/2310 24010KT BKN010
       
TAF DNIM 222130Z 2300/2406 VRB02KT 8000 BKN009 
     TEMPO 2302/2307 5000 BR SCT008 
     BECMG 2308/2310 25012KT BKN011 FEW019CB
       
TAF DNJO 222130Z 2300/2406 09006KT CAVOK 
     TEMPO 2302/2308 4000 HZ
       
TAF DNKA 222130Z 2300/2406 03003KT 4000 HZ 
     TEMPO 2303/2308 09008KT 2000 HZ
       
DNKN 230100Z 05006KT 3000 HZ NSC 19/05 Q1015 NOSIG
TAF DNKN 222140Z 2300/2406 VRB02KT 5000 HZ NSC 
     TEMPO 2306/2311 08012KT 1500 
     FM231200 06010KT 3000 HZ NSC
       
TAF DNKT 222140Z 2300/2406 VRB02KT 5000 HZ NSC 
     TEMPO 2306/2311 08012KT 1500 
     BECMG 2312/2314 08010KT
       
TAF DNMA 222140Z 2300/2406 05007KT 7000 NSW NSC 
     TEMPO 2305/2311 06013KT 1500 HZ
       
TAF DNMN 222130Z 2300/2406 29005KT CAVOK 
     TEMPO 2304/2309 06005KT 5000 HZ
       
DNPO 230000Z 00000KT 7000 SCT007 24/24 Q1010 TEMPO TS
TAF DNPO 222130Z 2300/2406 VRB02KT 7000 SCT008 
     TEMPO 2302/2307 3000 BR 
     PROB30 2304/2306 0800 FG VV003 
     BECMG 2308/2310 23010KT BKN011 FEW019CB
       
TAF DNSO 222140Z 2300/2406 09010KT 6000 NSW NSC 
     TEMPO 2307/2313 3000 HZ
       
TAF DNYO 222140Z 2300/2406 05008KT 5000 HZ NSC 
     TEMPO 2305/2310 3000
       
TAF DNCA 222130Z 2300/2406 00000KT 8000 BKN008 
     TEMPO 2301/2307 3000 TSRA BR BKN008 FEW019CB 
     BECMG 2308/2310 27011KT BKN012 FEW120CB
       
TAF DNAA 222130Z 2300/2406 04004KT CAVOK 
     TEMPO 2303/2309 5000 HZ 
     BECMG 2309/2311 11010KT 7000 NSW 
     TEMPO 2311/2317 21005KT
       
TAF DNCA 222130Z 2300/2406 00000KT 8000 BKN008 
     TEMPO 2301/2307 3000 TSRA BR BKN008 FEW019CB 
     BECMG 2308/2310 27011KT BKN012 FEW120CB
       
TAF DNEN 222130Z 2300/2406 17003KT 7000 SCT008 
     TEMPO 2302/2307 3000 BR 
     BECMG 2308/2310 BKN009
       
TAF DNGO 222140Z 2300/2406 07008KT 6000 NSW NSC 
     TEMPO 2306/2311 1500 HZ
       
TAF DNIL 222130Z 2300/2406 21005KT 9999 FEW010 
     PROB30 
     TEMPO 2303/2308 5000 BR 
     BECMG 2308/2310 24010KT BKN010
       
TAF DNIM 222130Z 2300/2406 VRB02KT 8000 BKN009 
     TEMPO 2302/2307 5000 BR SCT008 
     BECMG 2308/2310 25012KT BKN011 FEW019CB
       
TAF DNJO 222130Z 2300/2406 09006KT CAVOK 
     TEMPO 2302/2308 4000 HZ
       
TAF DNKA 222130Z 2300/2406 03003KT 4000 HZ 
     TEMPO 2303/2308 09008KT 2000 HZ
       
DNKN 230100Z 05006KT 3000 HZ NSC 19/05 Q1015 NOSIG
TAF DNKN 222140Z 2300/2406 VRB02KT 5000 HZ NSC 
     TEMPO 2306/2311 08012KT 1500 
     FM231200 06010KT 3000 HZ NSC
       
TAF DNKT 222140Z 2300/2406 VRB02KT 5000 HZ NSC 
     TEMPO 2306/2311 08012KT 1500 
     BECMG 2312/2314 08010KT
       
TAF DNMA 222140Z 2300/2406 05007KT 7000 NSW NSC 
     TEMPO 2305/2311 06013KT 1500 HZ
       
TAF DNMN 222130Z 2300/2406 29005KT CAVOK 
     TEMPO 2304/2309 06005KT 5000 HZ
       
DNPO 230000Z 00000KT 7000 SCT007 24/24 Q1010 TEMPO TS
TAF DNPO 222130Z 2300/2406 VRB02KT 7000 SCT008 
     TEMPO 2302/2307 3000 BR 
     PROB30 2304/2306 0800 FG VV003 
     BECMG 2308/2310 23010KT BKN011 FEW019CB
       
TAF DNSO 222140Z 2300/2406 09010KT 6000 NSW NSC 
     TEMPO 2307/2313 3000 HZ
       
TAF DNYO 222140Z 2300/2406 05008KT 5000 HZ NSC 
     TEMPO 2305/2310 3000
       
TAF DNEN 222130Z 2300/2406 17003KT 7000 SCT008 
     TEMPO 2302/2307 3000 BR 
     BECMG 2308/2310 BKN009
       
TAF DNAA 222130Z 2300/2406 04004KT CAVOK 
     TEMPO 2303/2309 5000 HZ 
     BECMG 2309/2311 11010KT 7000 NSW 
     TEMPO 2311/2317 21005KT
       
TAF DNCA 222130Z 2300/2406 00000KT 8000 BKN008 
     TEMPO 2301/2307 3000 TSRA BR BKN008 FEW019CB 
     BECMG 2308/2310 27011KT BKN012 FEW120CB
       
TAF DNEN 222130Z 2300/2406 17003KT 7000 SCT008 
     TEMPO 2302/2307 3000 BR 
     BECMG 2308/2310 BKN009
       
TAF DNGO 222140Z 2300/2406 07008KT 6000 NSW NSC 
     TEMPO 2306/2311 1500 HZ
       
TAF DNIL 222130Z 2300/2406 21005KT 9999 FEW010 
     PROB30 
     TEMPO 2303/2308 5000 BR 
     BECMG 2308/2310 24010KT BKN010
       
TAF DNIM 222130Z 2300/2406 VRB02KT 8000 BKN009 
     TEMPO 2302/2307 5000 BR SCT008 
     BECMG 2308/2310 25012KT BKN011 FEW019CB
       
TAF DNJO 222130Z 2300/2406 09006KT CAVOK 
     TEMPO 2302/2308 4000 HZ
       
TAF DNKA 222130Z 2300/2406 03003KT 4000 HZ 
     TEMPO 2303/2308 09008KT 2000 HZ
       
DNKN 230100Z 05006KT 3000 HZ NSC 19/05 Q1015 NOSIG
TAF DNKN 222140Z 2300/2406 VRB02KT 5000 HZ NSC 
     TEMPO 2306/2311 08012KT 1500 
     FM231200 06010KT 3000 HZ NSC
       
TAF DNKT 222140Z 2300/2406 VRB02KT 5000 HZ NSC 
     TEMPO 2306/2311 08012KT 1500 
     BECMG 2312/2314 08010KT
       
TAF DNMA 222140Z 2300/2406 05007KT 7000 NSW NSC 
     TEMPO 2305/2311 06013KT 1500 HZ
       
TAF DNMN 222130Z 2300/2406 29005KT CAVOK 
     TEMPO 2304/2309 06005KT 5000 HZ
       
DNPO 230000Z 00000KT 7000 SCT007 24/24 Q1010 TEMPO TS
TAF DNPO 222130Z 2300/2406 VRB02KT 7000 SCT008 
     TEMPO 2302/2307 3000 BR 
     PROB30 2304/2306 0800 FG VV003 
     BECMG 2308/2310 23010KT BKN011 FEW019CB
       
TAF DNSO 222140Z 2300/2406 09010KT 6000 NSW NSC 
     TEMPO 2307/2313 3000 HZ
       
TAF DNYO 222140Z 2300/2406 05008KT 5000 HZ NSC 
     TEMPO 2305/2310 3000
       
TAF DNIL 222130Z 2300/2406 21005KT 9999 FEW010 
     PROB30 
     TEMPO 2303/2308 5000 BR 
     BECMG 2308/2310 24010KT BKN010
       
TAF DNJO 222130Z 2300/2406 09006KT CAVOK 
     TEMPO 2302/2308 4000 HZ
       
TAF DNKA 222130Z 2300/2406 03003KT 4000 HZ 
     TEMPO 2303/2308 09008KT 2000 HZ
       
DNKN 230100Z 05006KT 3000 HZ NSC 19/05 Q1015 NOSIG
TAF DNKN 222140Z 2300/2406 VRB02KT 5000 HZ NSC 
     TEMPO 2306/2311 08012KT 1500 
     FM231200 06010KT 3000 HZ NSC
       
TAF DNMA 222140Z 2300/2406 05007KT 7000 NSW NSC 
     TEMPO 2305/2311 06013KT 1500 HZ
       
TAF DNMN 222130Z 2300/2406 29005KT CAVOK 
     TEMPO 2304/2309 06005KT 5000 HZ
       
DNPO 230000Z 00000KT 7000 SCT007 24/24 Q1010 TEMPO TS
TAF DNPO 222130Z 2300/2406 VRB02KT 7000 SCT008 
     TEMPO 2302/2307 3000 BR 
     PROB30 2304/2306 0800 FG VV003 
     BECMG 2308/2310 23010KT BKN011 FEW019CB
       
TAF DNSO 222140Z 2300/2406 09010KT 6000 NSW NSC 
     TEMPO 2307/2313 3000 HZ
       
TAF DNYO 222140Z 2300/2406 05008KT 5000 HZ NSC 
     TEMPO 2305/2310 3000